sensor_id;sensor_type;location;lat;lon;timestamp;temperature;humidity
1351;DHT22;669;50.206;9.998;2024-01-30T00:00:17;-0.10;26.80
1351;DHT22;669;50.206;9.998;2024-01-30T00:02:45;-0.10;26.50
1351;DHT22;669;50.206;9.998;2024-01-30T00:05:14;-0.10;26.80
1351;DHT22;669;50.206;9.998;2024-01-30T00:07:42;-0.10;27.30
1351;DHT22;669;50.206;9.998;2024-01-30T00:10:10;0.00;27.00
1351;DHT22;669;50.206;9.998;2024-01-30T00:12:38;0.00;26.70
1351;DHT22;669;50.206;9.998;2024-01-30T00:15:06;0.00;26.80
1351;DHT22;669;50.206;9.998;2024-01-30T00:17:37;0.00;26.90
1351;DHT22;669;50.206;9.998;2024-01-30T00:20:06;0.00;25.20
1351;DHT22;669;50.206;9.998;2024-01-30T00:22:35;-0.10;24.20
1351;DHT22;669;50.206;9.998;2024-01-30T00:25:04;-0.20;24.60
1351;DHT22;669;50.206;9.998;2024-01-30T00:27:32;-0.20;25.50
1351;DHT22;669;50.206;9.998;2024-01-30T00:30:00;-0.30;25.50
1351;DHT22;669;50.206;9.998;2024-01-30T00:32:28;-0.30;25.50
1351;DHT22;669;50.206;9.998;2024-01-30T00:34:57;-0.30;25.50
1351;DHT22;669;50.206;9.998;2024-01-30T00:37:25;-0.30;25.50
1351;DHT22;669;50.206;9.998;2024-01-30T00:39:53;-0.30;26.10
1351;DHT22;669;50.206;9.998;2024-01-30T00:42:21;-0.30;26.70
1351;DHT22;669;50.206;9.998;2024-01-30T00:44:50;-0.30;26.40
1351;DHT22;669;50.206;9.998;2024-01-30T00:47:18;-0.20;27.00
1351;DHT22;669;50.206;9.998;2024-01-30T00:49:46;-0.20;28.00
1351;DHT22;669;50.206;9.998;2024-01-30T00:52:15;-0.10;28.20
1351;DHT22;669;50.206;9.998;2024-01-30T00:54:43;-0.10;27.90
1351;DHT22;669;50.206;9.998;2024-01-30T00:57:11;0.00;27.70
1351;DHT22;669;50.206;9.998;2024-01-30T00:59:39;0.00;26.30
1351;DHT22;669;50.206;9.998;2024-01-30T01:02:07;-0.10;25.60
1351;DHT22;669;50.206;9.998;2024-01-30T01:04:35;-0.20;25.60
1351;DHT22;669;50.206;9.998;2024-01-30T01:07:03;-0.20;26.20
1351;DHT22;669;50.206;9.998;2024-01-30T01:09:33;-0.20;26.50
1351;DHT22;669;50.206;9.998;2024-01-30T01:12:01;-0.20;26.50
1351;DHT22;669;50.206;9.998;2024-01-30T01:14:29;-0.20;26.40
1351;DHT22;669;50.206;9.998;2024-01-30T01:16:57;-0.20;27.20
1351;DHT22;669;50.206;9.998;2024-01-30T01:19:25;-0.20;27.80
1351;DHT22;669;50.206;9.998;2024-01-30T01:21:53;-0.10;27.90
1351;DHT22;669;50.206;9.998;2024-01-30T01:24:21;-0.10;27.40
1351;DHT22;669;50.206;9.998;2024-01-30T01:26:50;-0.20;24.60
1351;DHT22;669;50.206;9.998;2024-01-30T01:29:18;-0.30;25.50
1351;DHT22;669;50.206;9.998;2024-01-30T01:31:47;-0.20;26.70
1351;DHT22;669;50.206;9.998;2024-01-30T01:34:15;-0.20;26.60
1351;DHT22;669;50.206;9.998;2024-01-30T01:36:43;-0.30;26.50
1351;DHT22;669;50.206;9.998;2024-01-30T01:39:11;-0.20;27.30
1351;DHT22;669;50.206;9.998;2024-01-30T01:41:39;-0.30;26.70
1351;DHT22;669;50.206;9.998;2024-01-30T01:44:08;-0.30;26.50
1351;DHT22;669;50.206;9.998;2024-01-30T01:46:37;-0.30;27.00
1351;DHT22;669;50.206;9.998;2024-01-30T01:49:05;-0.30;27.10
1351;DHT22;669;50.206;9.998;2024-01-30T01:51:35;-0.30;26.70
1351;DHT22;669;50.206;9.998;2024-01-30T01:54:05;-0.40;26.20
1351;DHT22;669;50.206;9.998;2024-01-30T01:56:33;-0.40;26.20
1351;DHT22;669;50.206;9.998;2024-01-30T01:59:06;-0.40;25.50
1351;DHT22;669;50.206;9.998;2024-01-30T02:01:36;-0.50;25.40
1351;DHT22;669;50.206;9.998;2024-01-30T02:04:06;-0.50;26.10
1351;DHT22;669;50.206;9.998;2024-01-30T02:06:35;-0.50;26.70
1351;DHT22;669;50.206;9.998;2024-01-30T02:09:03;-0.50;27.20
1351;DHT22;669;50.206;9.998;2024-01-30T02:11:32;-0.40;27.90
1351;DHT22;669;50.206;9.998;2024-01-30T02:14:02;-0.40;27.80
1351;DHT22;669;50.206;9.998;2024-01-30T02:16:30;-0.40;27.50
1351;DHT22;669;50.206;9.998;2024-01-30T02:19:00;-0.40;27.60
1351;DHT22;669;50.206;9.998;2024-01-30T02:21:29;-0.40;27.30
1351;DHT22;669;50.206;9.998;2024-01-30T02:23:58;-0.50;27.20
1351;DHT22;669;50.206;9.998;2024-01-30T02:26:27;-0.50;27.40
1351;DHT22;669;50.206;9.998;2024-01-30T02:28:55;-0.50;27.40
1351;DHT22;669;50.206;9.998;2024-01-30T02:31:25;-0.50;27.60
1351;DHT22;669;50.206;9.998;2024-01-30T02:33:53;-0.50;28.60
1351;DHT22;669;50.206;9.998;2024-01-30T02:36:21;-0.40;28.60
1351;DHT22;669;50.206;9.998;2024-01-30T02:38:50;-0.50;28.50
1351;DHT22;669;50.206;9.998;2024-01-30T02:41:18;-0.50;27.60
1351;DHT22;669;50.206;9.998;2024-01-30T02:43:46;-0.50;27.00
1351;DHT22;669;50.206;9.998;2024-01-30T02:46:14;-0.60;27.50
1351;DHT22;669;50.206;9.998;2024-01-30T02:48:41;-0.60;28.00
1351;DHT22;669;50.206;9.998;2024-01-30T02:51:09;-0.60;27.80
1351;DHT22;669;50.206;9.998;2024-01-30T02:53:36;-0.60;28.50
1351;DHT22;669;50.206;9.998;2024-01-30T02:56:06;-0.60;28.80
1351;DHT22;669;50.206;9.998;2024-01-30T02:58:36;-0.60;28.70
1351;DHT22;669;50.206;9.998;2024-01-30T03:01:04;-0.60;29.00
1351;DHT22;669;50.206;9.998;2024-01-30T03:03:33;-0.50;28.90
1351;DHT22;669;50.206;9.998;2024-01-30T03:06:03;-0.50;27.30
1351;DHT22;669;50.206;9.998;2024-01-30T03:08:31;-0.60;27.00
1351;DHT22;669;50.206;9.998;2024-01-30T03:10:58;-0.70;27.40
1351;DHT22;669;50.206;9.998;2024-01-30T03:13:28;-0.70;27.80
1351;DHT22;669;50.206;9.998;2024-01-30T03:15:56;-0.60;28.00
1351;DHT22;669;50.206;9.998;2024-01-30T03:18:24;-0.70;28.50
1351;DHT22;669;50.206;9.998;2024-01-30T03:20:52;-0.60;28.70
1351;DHT22;669;50.206;9.998;2024-01-30T03:23:19;-0.60;28.50
1351;DHT22;669;50.206;9.998;2024-01-30T03:25:47;-0.60;28.80
1351;DHT22;669;50.206;9.998;2024-01-30T03:28:15;-0.60;28.90
1351;DHT22;669;50.206;9.998;2024-01-30T03:30:44;-0.60;29.10
1351;DHT22;669;50.206;9.998;2024-01-30T03:33:12;-0.50;29.10
1351;DHT22;669;50.206;9.998;2024-01-30T03:35:40;-0.50;29.40
1351;DHT22;669;50.206;9.998;2024-01-30T03:38:08;-0.50;29.50
1351;DHT22;669;50.206;9.998;2024-01-30T03:40:36;-0.50;29.10
1351;DHT22;669;50.206;9.998;2024-01-30T03:43:04;-0.50;27.60
1351;DHT22;669;50.206;9.998;2024-01-30T03:45:32;-0.60;26.40
1351;DHT22;669;50.206;9.998;2024-01-30T03:48:02;-0.60;26.80
1351;DHT22;669;50.206;9.998;2024-01-30T03:50:30;-0.60;27.40
1351;DHT22;669;50.206;9.998;2024-01-30T03:52:58;-0.60;28.00
1351;DHT22;669;50.206;9.998;2024-01-30T03:55:26;-0.60;28.30
1351;DHT22;669;50.206;9.998;2024-01-30T03:57:54;-0.60;28.60
1351;DHT22;669;50.206;9.998;2024-01-30T04:00:22;-0.60;28.30
1351;DHT22;669;50.206;9.998;2024-01-30T04:02:50;-0.60;28.10
1351;DHT22;669;50.206;9.998;2024-01-30T04:05:20;-0.60;27.30
1351;DHT22;669;50.206;9.998;2024-01-30T04:07:48;-0.70;27.10
1351;DHT22;669;50.206;9.998;2024-01-30T04:10:16;-0.70;27.90
1351;DHT22;669;50.206;9.998;2024-01-30T04:12:44;-0.70;27.90
1351;DHT22;669;50.206;9.998;2024-01-30T04:15:12;-0.70;28.00
1351;DHT22;669;50.206;9.998;2024-01-30T04:17:40;-0.70;28.40
1351;DHT22;669;50.206;9.998;2024-01-30T04:20:13;-0.70;28.00
1351;DHT22;669;50.206;9.998;2024-01-30T04:22:43;-0.70;27.70
1351;DHT22;669;50.206;9.998;2024-01-30T04:25:11;-0.70;27.20
1351;DHT22;669;50.206;9.998;2024-01-30T04:27:39;-0.90;25.40
1351;DHT22;669;50.206;9.998;2024-01-30T04:30:08;-1.00;24.60
1351;DHT22;669;50.206;9.998;2024-01-30T04:32:37;-1.10;26.00
1351;DHT22;669;50.206;9.998;2024-01-30T04:35:05;-1.20;26.40
1351;DHT22;669;50.206;9.998;2024-01-30T04:37:37;-1.20;26.60
1351;DHT22;669;50.206;9.998;2024-01-30T04:40:07;-1.20;26.80
1351;DHT22;669;50.206;9.998;2024-01-30T04:42:36;-1.20;27.30
1351;DHT22;669;50.206;9.998;2024-01-30T04:45:06;-1.20;27.00
1351;DHT22;669;50.206;9.998;2024-01-30T04:47:34;-1.20;26.70
1351;DHT22;669;50.206;9.998;2024-01-30T04:50:02;-1.20;26.20
1351;DHT22;669;50.206;9.998;2024-01-30T04:52:31;-1.20;26.50
1351;DHT22;669;50.206;9.998;2024-01-30T04:54:59;-1.20;26.60
1351;DHT22;669;50.206;9.998;2024-01-30T04:57:29;-1.20;26.80
1351;DHT22;669;50.206;9.998;2024-01-30T04:59:57;-1.20;26.90
1351;DHT22;669;50.206;9.998;2024-01-30T05:02:25;-1.20;26.70
1351;DHT22;669;50.206;9.998;2024-01-30T05:04:53;-1.20;26.80
1351;DHT22;669;50.206;9.998;2024-01-30T05:07:21;-1.20;27.00
1351;DHT22;669;50.206;9.998;2024-01-30T05:09:49;-1.20;27.10
1351;DHT22;669;50.206;9.998;2024-01-30T05:12:19;-1.20;27.50
1351;DHT22;669;50.206;9.998;2024-01-30T05:14:48;-1.20;27.30
1351;DHT22;669;50.206;9.998;2024-01-30T05:17:16;-1.20;25.90
1351;DHT22;669;50.206;9.998;2024-01-30T05:19:44;-1.20;26.10
1351;DHT22;669;50.206;9.998;2024-01-30T05:22:12;-1.30;26.40
1351;DHT22;669;50.206;9.998;2024-01-30T05:24:42;-1.20;26.90
1351;DHT22;669;50.206;9.998;2024-01-30T05:27:10;-1.30;27.00
1351;DHT22;669;50.206;9.998;2024-01-30T05:29:40;-1.30;26.70
1351;DHT22;669;50.206;9.998;2024-01-30T05:32:09;-1.30;26.50
1351;DHT22;669;50.206;9.998;2024-01-30T05:34:37;-1.30;27.20
1351;DHT22;669;50.206;9.998;2024-01-30T05:37:05;-1.20;27.50
1351;DHT22;669;50.206;9.998;2024-01-30T05:39:34;-1.20;27.10
1351;DHT22;669;50.206;9.998;2024-01-30T05:42:02;-1.20;27.20
1351;DHT22;669;50.206;9.998;2024-01-30T05:44:30;-1.20;27.10
1351;DHT22;669;50.206;9.998;2024-01-30T05:46:58;-1.20;27.50
1351;DHT22;669;50.206;9.998;2024-01-30T05:49:27;-1.30;27.40
1351;DHT22;669;50.206;9.998;2024-01-30T05:51:55;-1.20;27.30
1351;DHT22;669;50.206;9.998;2024-01-30T05:54:24;-1.20;27.50
1351;DHT22;669;50.206;9.998;2024-01-30T05:56:51;-1.20;27.70
1351;DHT22;669;50.206;9.998;2024-01-30T05:59:19;-1.20;27.80
1351;DHT22;669;50.206;9.998;2024-01-30T06:01:47;-1.20;27.80
1351;DHT22;669;50.206;9.998;2024-01-30T06:04:16;-1.20;25.80
1351;DHT22;669;50.206;9.998;2024-01-30T06:06:45;-1.30;26.10
1351;DHT22;669;50.206;9.998;2024-01-30T06:09:13;-1.30;26.30
1351;DHT22;669;50.206;9.998;2024-01-30T06:11:41;-1.30;26.60
1351;DHT22;669;50.206;9.998;2024-01-30T06:14:09;-1.30;26.90
1351;DHT22;669;50.206;9.998;2024-01-30T06:16:37;-1.30;27.40
1351;DHT22;669;50.206;9.998;2024-01-30T06:19:05;-1.30;27.50
1351;DHT22;669;50.206;9.998;2024-01-30T06:21:33;-1.30;27.60
1351;DHT22;669;50.206;9.998;2024-01-30T06:24:05;-1.30;27.50
1351;DHT22;669;50.206;9.998;2024-01-30T06:26:33;-1.30;27.60
1351;DHT22;669;50.206;9.998;2024-01-30T06:29:01;-1.30;27.60
1351;DHT22;669;50.206;9.998;2024-01-30T06:31:29;-1.30;27.40
1351;DHT22;669;50.206;9.998;2024-01-30T06:33:57;-1.30;27.90
1351;DHT22;669;50.206;9.998;2024-01-30T06:36:26;-1.30;27.60
1351;DHT22;669;50.206;9.998;2024-01-30T06:38:54;-1.30;27.90
1351;DHT22;669;50.206;9.998;2024-01-30T06:41:23;-1.30;28.10
1351;DHT22;669;50.206;9.998;2024-01-30T06:43:51;-1.30;29.00
1351;DHT22;669;50.206;9.998;2024-01-30T06:46:19;-1.30;28.20
1351;DHT22;669;50.206;9.998;2024-01-30T06:48:48;-1.30;28.50
1351;DHT22;669;50.206;9.998;2024-01-30T06:51:16;-1.30;28.10
1351;DHT22;669;50.206;9.998;2024-01-30T06:53:44;-1.30;28.60
1351;DHT22;669;50.206;9.998;2024-01-30T06:56:12;-1.20;28.30
1351;DHT22;669;50.206;9.998;2024-01-30T06:58:41;-1.20;28.00
1351;DHT22;669;50.206;9.998;2024-01-30T07:01:09;-1.20;27.30
1351;DHT22;669;50.206;9.998;2024-01-30T07:03:38;-1.30;25.70
1351;DHT22;669;50.206;9.998;2024-01-30T07:06:06;-1.30;25.60
1351;DHT22;669;50.206;9.998;2024-01-30T07:08:34;-1.30;26.30
1351;DHT22;669;50.206;9.998;2024-01-30T07:11:04;-1.30;26.80
1351;DHT22;669;50.206;9.998;2024-01-30T07:13:32;-1.30;27.30
1351;DHT22;669;50.206;9.998;2024-01-30T07:16:01;-1.30;27.40
1351;DHT22;669;50.206;9.998;2024-01-30T07:18:30;-1.30;27.40
1351;DHT22;669;50.206;9.998;2024-01-30T07:20:58;-1.30;27.60
1351;DHT22;669;50.206;9.998;2024-01-30T07:23:26;-1.30;27.40
1351;DHT22;669;50.206;9.998;2024-01-30T07:25:53;-1.30;27.30
1351;DHT22;669;50.206;9.998;2024-01-30T07:28:21;-1.30;27.40
1351;DHT22;669;50.206;9.998;2024-01-30T07:30:49;-1.20;27.80
1351;DHT22;669;50.206;9.998;2024-01-30T07:33:19;-1.10;28.10
1351;DHT22;669;50.206;9.998;2024-01-30T07:35:47;-1.10;27.90
1351;DHT22;669;50.206;9.998;2024-01-30T07:38:15;-1.00;28.40
1351;DHT22;669;50.206;9.998;2024-01-30T07:40:43;-0.90;28.50
1351;DHT22;669;50.206;9.998;2024-01-30T07:43:11;-0.80;28.70
1351;DHT22;669;50.206;9.998;2024-01-30T07:45:39;-0.70;28.50
1351;DHT22;669;50.206;9.998;2024-01-30T07:48:08;-0.60;28.90
1351;DHT22;669;50.206;9.998;2024-01-30T07:50:38;-0.50;28.40
1351;DHT22;669;50.206;9.998;2024-01-30T07:53:06;-0.40;28.00
1351;DHT22;669;50.206;9.998;2024-01-30T07:55:34;-0.30;26.90
1351;DHT22;669;50.206;9.998;2024-01-30T07:58:02;-0.40;26.30
1351;DHT22;669;50.206;9.998;2024-01-30T08:00:31;-0.40;26.60
1351;DHT22;669;50.206;9.998;2024-01-30T08:02:59;-0.30;28.10
1351;DHT22;669;50.206;9.998;2024-01-30T08:05:27;-0.20;28.30
1351;DHT22;669;50.206;9.998;2024-01-30T08:07:56;-0.10;27.50
1351;DHT22;669;50.206;9.998;2024-01-30T08:10:27;-0.10;26.50
1351;DHT22;669;50.206;9.998;2024-01-30T08:12:55;-0.10;26.30
1351;DHT22;669;50.206;9.998;2024-01-30T08:15:23;-0.10;27.00
1351;DHT22;669;50.206;9.998;2024-01-30T08:17:51;0.00;27.30
1351;DHT22;669;50.206;9.998;2024-01-30T08:20:22;0.10;27.70
1351;DHT22;669;50.206;9.998;2024-01-30T08:22:50;0.20;27.80
1351;DHT22;669;50.206;9.998;2024-01-30T08:25:19;0.30;28.20
1351;DHT22;669;50.206;9.998;2024-01-30T08:27:48;0.40;28.00
1351;DHT22;669;50.206;9.998;2024-01-30T08:30:16;0.50;28.00
1351;DHT22;669;50.206;9.998;2024-01-30T08:32:44;0.70;27.80
1351;DHT22;669;50.206;9.998;2024-01-30T08:35:12;0.80;27.50
1351;DHT22;669;50.206;9.998;2024-01-30T08:37:43;1.00;27.80
1351;DHT22;669;50.206;9.998;2024-01-30T08:40:11;0.90;26.30
1351;DHT22;669;50.206;9.998;2024-01-30T08:42:40;1.00;26.60
1351;DHT22;669;50.206;9.998;2024-01-30T08:45:09;1.10;26.40
1351;DHT22;669;50.206;9.998;2024-01-30T08:47:37;1.10;25.70
1351;DHT22;669;50.206;9.998;2024-01-30T08:50:06;1.20;24.90
1351;DHT22;669;50.206;9.998;2024-01-30T08:52:35;1.30;25.80
1351;DHT22;669;50.206;9.998;2024-01-30T08:55:03;1.40;25.80
1351;DHT22;669;50.206;9.998;2024-01-30T08:57:32;1.50;25.70
1351;DHT22;669;50.206;9.998;2024-01-30T09:00:01;1.60;25.10
1351;DHT22;669;50.206;9.998;2024-01-30T09:02:34;1.70;25.50
1351;DHT22;669;50.206;9.998;2024-01-30T09:05:02;1.70;24.60
1351;DHT22;669;50.206;9.998;2024-01-30T09:07:30;1.80;23.70
1351;DHT22;669;50.206;9.998;2024-01-30T09:09:59;1.80;24.90
1351;DHT22;669;50.206;9.998;2024-01-30T09:12:27;1.80;23.50
1351;DHT22;669;50.206;9.998;2024-01-30T09:14:54;1.90;24.40
1351;DHT22;669;50.206;9.998;2024-01-30T09:17:24;2.00;23.80
1351;DHT22;669;50.206;9.998;2024-01-30T09:19:52;2.00;23.30
1351;DHT22;669;50.206;9.998;2024-01-30T09:22:20;2.10;23.90
1351;DHT22;669;50.206;9.998;2024-01-30T09:24:48;2.10;23.90
1351;DHT22;669;50.206;9.998;2024-01-30T09:27:16;2.20;23.70
1351;DHT22;669;50.206;9.998;2024-01-30T09:29:44;2.20;23.50
1351;DHT22;669;50.206;9.998;2024-01-30T09:32:12;2.30;23.40
1351;DHT22;669;50.206;9.998;2024-01-30T09:34:41;2.40;23.30
1351;DHT22;669;50.206;9.998;2024-01-30T09:37:09;2.50;23.20
1351;DHT22;669;50.206;9.998;2024-01-30T09:39:37;2.60;22.00
1351;DHT22;669;50.206;9.998;2024-01-30T09:42:11;2.60;22.30
1351;DHT22;669;50.206;9.998;2024-01-30T09:44:42;2.70;23.20
1351;DHT22;669;50.206;9.998;2024-01-30T09:47:11;2.90;22.60
1351;DHT22;669;50.206;9.998;2024-01-30T09:49:40;3.00;21.60
1351;DHT22;669;50.206;9.998;2024-01-30T09:52:11;3.10;21.50
1351;DHT22;669;50.206;9.998;2024-01-30T09:54:40;3.20;22.10
1351;DHT22;669;50.206;9.998;2024-01-30T09:57:09;3.40;20.30
1351;DHT22;669;50.206;9.998;2024-01-30T09:59:37;3.50;19.00
1351;DHT22;669;50.206;9.998;2024-01-30T10:02:05;3.70;20.40
1351;DHT22;669;50.206;9.998;2024-01-30T10:04:34;3.90;19.40
1351;DHT22;669;50.206;9.998;2024-01-30T10:07:04;4.00;17.50
1351;DHT22;669;50.206;9.998;2024-01-30T10:09:33;4.10;14.90
1351;DHT22;669;50.206;9.998;2024-01-30T10:12:02;4.20;13.40
1351;DHT22;669;50.206;9.998;2024-01-30T10:14:31;4.30;13.50
1351;DHT22;669;50.206;9.998;2024-01-30T10:17:00;4.50;12.20
1351;DHT22;669;50.206;9.998;2024-01-30T10:19:32;4.70;11.50
1351;DHT22;669;50.206;9.998;2024-01-30T10:22:00;4.70;9.80
1351;DHT22;669;50.206;9.998;2024-01-30T10:24:30;4.80;8.70
1351;DHT22;669;50.206;9.998;2024-01-30T10:26:58;4.80;7.20
1351;DHT22;669;50.206;9.998;2024-01-30T10:29:27;4.80;7.30
1351;DHT22;669;50.206;9.998;2024-01-30T10:31:58;4.80;7.00
1351;DHT22;669;50.206;9.998;2024-01-30T10:34:27;4.80;7.70
1351;DHT22;669;50.206;9.998;2024-01-30T10:37:01;4.90;7.80
1351;DHT22;669;50.206;9.998;2024-01-30T10:39:38;5.00;7.60
1351;DHT22;669;50.206;9.998;2024-01-30T10:42:07;5.00;8.10
1351;DHT22;669;50.206;9.998;2024-01-30T10:44:44;5.10;7.20
1351;DHT22;669;50.206;9.998;2024-01-30T10:47:20;5.30;7.10
1351;DHT22;669;50.206;9.998;2024-01-30T10:49:49;5.50;6.50
1351;DHT22;669;50.206;9.998;2024-01-30T10:52:19;5.60;5.70
1351;DHT22;669;50.206;9.998;2024-01-30T10:54:50;5.80;5.80
1351;DHT22;669;50.206;9.998;2024-01-30T10:57:19;5.90;3.10
1351;DHT22;669;50.206;9.998;2024-01-30T10:59:47;6.10;3.80
1351;DHT22;669;50.206;9.998;2024-01-30T11:02:16;6.10;1.90
1351;DHT22;669;50.206;9.998;2024-01-30T11:04:45;6.10;2.00
1351;DHT22;669;50.206;9.998;2024-01-30T11:07:15;6.10;2.20
1351;DHT22;669;50.206;9.998;2024-01-30T11:09:52;6.10;1.70
1351;DHT22;669;50.206;9.998;2024-01-30T11:12:22;6.10;1.90
1351;DHT22;669;50.206;9.998;2024-01-30T11:14:50;6.10;1.00
1351;DHT22;669;50.206;9.998;2024-01-30T11:17:42;6.10;1.00
1351;DHT22;669;50.206;9.998;2024-01-30T11:20:11;6.20;1.90
1351;DHT22;669;50.206;9.998;2024-01-30T11:22:42;6.30;1.40
1351;DHT22;669;50.206;9.998;2024-01-30T11:25:13;6.40;1.00
1351;DHT22;669;50.206;9.998;2024-01-30T11:27:42;6.50;1.00
1351;DHT22;669;50.206;9.998;2024-01-30T11:30:11;6.60;1.00
1351;DHT22;669;50.206;9.998;2024-01-30T11:32:58;6.80;1.00
1351;DHT22;669;50.206;9.998;2024-01-30T11:35:29;6.70;1.00
1351;DHT22;669;50.206;9.998;2024-01-30T11:37:57;6.80;1.00
1351;DHT22;669;50.206;9.998;2024-01-30T11:40:28;6.90;1.00
1351;DHT22;669;50.206;9.998;2024-01-30T11:42:57;7.00;1.00
1351;DHT22;669;50.206;9.998;2024-01-30T11:45:26;7.10;1.00
1351;DHT22;669;50.206;9.998;2024-01-30T11:47:54;7.10;1.00
1351;DHT22;669;50.206;9.998;2024-01-30T11:50:23;7.10;1.00
1351;DHT22;669;50.206;9.998;2024-01-30T11:52:51;7.20;1.00
1351;DHT22;669;50.206;9.998;2024-01-30T11:55:19;7.30;1.00
1351;DHT22;669;50.206;9.998;2024-01-30T11:57:48;7.40;1.00
1351;DHT22;669;50.206;9.998;2024-01-30T12:00:18;7.40;1.00
1351;DHT22;669;50.206;9.998;2024-01-30T12:02:49;7.50;1.00
1351;DHT22;669;50.206;9.998;2024-01-30T12:05:19;7.50;1.00
1351;DHT22;669;50.206;9.998;2024-01-30T12:07:48;7.50;1.00
1351;DHT22;669;50.206;9.998;2024-01-30T12:10:16;7.40;1.00
1351;DHT22;669;50.206;9.998;2024-01-30T12:12:46;7.30;1.00
1351;DHT22;669;50.206;9.998;2024-01-30T12:15:16;7.20;1.00
1351;DHT22;669;50.206;9.998;2024-01-30T12:17:44;7.20;1.00
1351;DHT22;669;50.206;9.998;2024-01-30T12:20:13;7.10;1.00
1351;DHT22;669;50.206;9.998;2024-01-30T12:22:42;7.10;1.00
1351;DHT22;669;50.206;9.998;2024-01-30T12:25:11;7.00;1.00
1351;DHT22;669;50.206;9.998;2024-01-30T12:27:42;6.90;1.00
1351;DHT22;669;50.206;9.998;2024-01-30T12:30:11;6.80;1.00
1351;DHT22;669;50.206;9.998;2024-01-30T12:32:42;6.90;1.00
1351;DHT22;669;50.206;9.998;2024-01-30T12:35:10;7.00;1.00
1351;DHT22;669;50.206;9.998;2024-01-30T12:37:39;7.10;1.00
1351;DHT22;669;50.206;9.998;2024-01-30T12:40:08;7.20;1.00
1351;DHT22;669;50.206;9.998;2024-01-30T12:42:37;7.30;1.00
1351;DHT22;669;50.206;9.998;2024-01-30T12:45:08;7.40;1.00
1351;DHT22;669;50.206;9.998;2024-01-30T12:47:35;7.40;1.00
1351;DHT22;669;50.206;9.998;2024-01-30T12:50:05;7.50;1.00
1351;DHT22;669;50.206;9.998;2024-01-30T12:52:33;7.50;1.00
1351;DHT22;669;50.206;9.998;2024-01-30T12:55:01;7.60;1.00
1351;DHT22;669;50.206;9.998;2024-01-30T12:57:30;7.50;1.00
1351;DHT22;669;50.206;9.998;2024-01-30T12:59:58;7.50;1.00
1351;DHT22;669;50.206;9.998;2024-01-30T13:02:26;7.50;1.00
1351;DHT22;669;50.206;9.998;2024-01-30T13:05:03;7.40;1.00
1351;DHT22;669;50.206;9.998;2024-01-30T13:07:32;7.20;1.00
1351;DHT22;669;50.206;9.998;2024-01-30T13:10:01;7.20;1.00
1351;DHT22;669;50.206;9.998;2024-01-30T13:12:31;7.20;1.00
1351;DHT22;669;50.206;9.998;2024-01-30T13:15:00;7.20;1.00
1351;DHT22;669;50.206;9.998;2024-01-30T13:17:30;7.30;1.00
1351;DHT22;669;50.206;9.998;2024-01-30T13:19:58;7.40;1.00
1351;DHT22;669;50.206;9.998;2024-01-30T13:22:38;7.50;1.00
1351;DHT22;669;50.206;9.998;2024-01-30T13:25:07;7.50;1.00
1351;DHT22;669;50.206;9.998;2024-01-30T13:27:35;7.50;1.00
1351;DHT22;669;50.206;9.998;2024-01-30T13:30:05;7.50;1.00
1351;DHT22;669;50.206;9.998;2024-01-30T13:32:33;7.40;1.00
1351;DHT22;669;50.206;9.998;2024-01-30T13:35:01;7.40;1.00
1351;DHT22;669;50.206;9.998;2024-01-30T13:37:29;7.40;1.00
1351;DHT22;669;50.206;9.998;2024-01-30T13:39:58;7.30;1.00
1351;DHT22;669;50.206;9.998;2024-01-30T13:42:30;7.30;1.00
1351;DHT22;669;50.206;9.998;2024-01-30T13:44:58;7.30;1.00
1351;DHT22;669;50.206;9.998;2024-01-30T13:47:26;7.20;1.00
1351;DHT22;669;50.206;9.998;2024-01-30T13:49:54;7.10;1.00
1351;DHT22;669;50.206;9.998;2024-01-30T13:52:22;7.10;1.00
1351;DHT22;669;50.206;9.998;2024-01-30T13:54:59;7.00;1.00
1351;DHT22;669;50.206;9.998;2024-01-30T13:57:27;7.00;1.00
1351;DHT22;669;50.206;9.998;2024-01-30T13:59:55;6.90;1.00
1351;DHT22;669;50.206;9.998;2024-01-30T14:02:23;6.80;1.00
1351;DHT22;669;50.206;9.998;2024-01-30T14:04:51;6.90;1.00
1351;DHT22;669;50.206;9.998;2024-01-30T14:07:19;6.80;1.00
1351;DHT22;669;50.206;9.998;2024-01-30T14:09:48;6.70;1.00
1351;DHT22;669;50.206;9.998;2024-01-30T14:12:17;6.70;1.00
1351;DHT22;669;50.206;9.998;2024-01-30T14:14:45;6.60;1.00
1351;DHT22;669;50.206;9.998;2024-01-30T14:17:13;6.60;1.00
1351;DHT22;669;50.206;9.998;2024-01-30T14:19:41;6.60;1.00
1351;DHT22;669;50.206;9.998;2024-01-30T14:22:09;6.50;1.00
1351;DHT22;669;50.206;9.998;2024-01-30T14:24:37;6.50;1.00
1351;DHT22;669;50.206;9.998;2024-01-30T14:27:05;6.50;1.00
1351;DHT22;669;50.206;9.998;2024-01-30T14:29:36;6.50;1.00
1351;DHT22;669;50.206;9.998;2024-01-30T14:32:05;6.50;1.00
1351;DHT22;669;50.206;9.998;2024-01-30T14:34:33;6.40;1.30
1351;DHT22;669;50.206;9.998;2024-01-30T14:37:02;6.30;1.10
1351;DHT22;669;50.206;9.998;2024-01-30T14:39:30;6.30;2.20
1351;DHT22;669;50.206;9.998;2024-01-30T14:41:59;6.30;3.50
1351;DHT22;669;50.206;9.998;2024-01-30T14:44:27;6.30;3.80
1351;DHT22;669;50.206;9.998;2024-01-30T14:46:56;6.30;3.80
1351;DHT22;669;50.206;9.998;2024-01-30T14:49:24;6.30;3.50
1351;DHT22;669;50.206;9.998;2024-01-30T14:51:52;6.30;3.10
1351;DHT22;669;50.206;9.998;2024-01-30T14:54:20;6.30;3.70
1351;DHT22;669;50.206;9.998;2024-01-30T14:56:48;6.20;4.80
1351;DHT22;669;50.206;9.998;2024-01-30T14:59:16;6.20;4.90
1351;DHT22;669;50.206;9.998;2024-01-30T15:01:44;6.20;4.90
1351;DHT22;669;50.206;9.998;2024-01-30T15:04:13;6.10;4.90
1351;DHT22;669;50.206;9.998;2024-01-30T15:06:41;6.10;4.90
1351;DHT22;669;50.206;9.998;2024-01-30T15:09:12;6.00;5.40
1351;DHT22;669;50.206;9.998;2024-01-30T15:11:41;5.90;5.90
1351;DHT22;669;50.206;9.998;2024-01-30T15:14:09;5.80;5.80
1351;DHT22;669;50.206;9.998;2024-01-30T15:16:37;5.80;6.20
1351;DHT22;669;50.206;9.998;2024-01-30T15:19:05;5.70;6.60
1351;DHT22;669;50.206;9.998;2024-01-30T15:21:35;5.60;6.10
1351;DHT22;669;50.206;9.998;2024-01-30T15:24:03;5.50;6.30
1351;DHT22;669;50.206;9.998;2024-01-30T15:26:31;5.50;5.60
1351;DHT22;669;50.206;9.998;2024-01-30T15:28:59;5.40;6.20
1351;DHT22;669;50.206;9.998;2024-01-30T15:31:27;5.40;6.40
1351;DHT22;669;50.206;9.998;2024-01-30T15:33:55;5.40;6.40
1351;DHT22;669;50.206;9.998;2024-01-30T15:36:24;5.40;7.10
1351;DHT22;669;50.206;9.998;2024-01-30T15:38:54;5.30;7.10
1351;DHT22;669;50.206;9.998;2024-01-30T15:41:22;5.30;6.90
1351;DHT22;669;50.206;9.998;2024-01-30T15:43:50;5.20;7.00
1351;DHT22;669;50.206;9.998;2024-01-30T15:46:18;5.20;7.00
1351;DHT22;669;50.206;9.998;2024-01-30T15:48:46;5.10;8.10
1351;DHT22;669;50.206;9.998;2024-01-30T15:51:15;5.00;8.60
1351;DHT22;669;50.206;9.998;2024-01-30T15:53:43;4.90;9.10
1351;DHT22;669;50.206;9.998;2024-01-30T15:56:12;4.90;9.40
1351;DHT22;669;50.206;9.998;2024-01-30T15:58:40;4.80;9.40
1351;DHT22;669;50.206;9.998;2024-01-30T16:01:08;4.80;9.90
1351;DHT22;669;50.206;9.998;2024-01-30T16:03:36;4.80;10.20
1351;DHT22;669;50.206;9.998;2024-01-30T16:06:04;4.80;10.00
1351;DHT22;669;50.206;9.998;2024-01-30T16:08:32;4.60;10.80
1351;DHT22;669;50.206;9.998;2024-01-30T16:11:00;4.50;11.70
1351;DHT22;669;50.206;9.998;2024-01-30T16:13:29;4.40;13.30
1351;DHT22;669;50.206;9.998;2024-01-30T16:15:57;4.40;13.00
1351;DHT22;669;50.206;9.998;2024-01-30T16:18:25;4.30;13.50
1351;DHT22;669;50.206;9.998;2024-01-30T16:20:57;4.30;14.20
1351;DHT22;669;50.206;9.998;2024-01-30T16:23:25;4.20;14.40
1351;DHT22;669;50.206;9.998;2024-01-30T16:25:54;4.20;14.30
1351;DHT22;669;50.206;9.998;2024-01-30T16:28:25;4.10;14.50
1351;DHT22;669;50.206;9.998;2024-01-30T16:30:55;4.10;15.40
1351;DHT22;669;50.206;9.998;2024-01-30T16:33:24;4.10;15.90
1351;DHT22;669;50.206;9.998;2024-01-30T16:35:52;4.00;16.20
1351;DHT22;669;50.206;9.998;2024-01-30T16:38:20;4.00;16.70
1351;DHT22;669;50.206;9.998;2024-01-30T16:40:48;4.00;17.30